Time;durP1;ratioP1;P1;durP2;ratioP2;P2;SDS_P1;SDS_P2;PMS_P1;PMS_P2;Temp;Humidity;BMP_temperature;BMP_pressure;BME280_temperature;BME280_humidity;BME280_pressure;Samples;Min_cycle;Max_cycle;Signal;HPM_P1;HPM_P2
2023/04/18 00:01:25;;;;;;;11.73;8.40;;;;;;;10.13;82.73;102501.84;5054568;28;20049;-62
2023/04/18 00:03:52;;;;;;;11.45;8.38;;;;;;;10.10;80.24;102497.66;5048921;28;20512;-63
2023/04/18 00:06:21;;;;;;;14.80;8.23;;;;;;;10.11;80.24;102498.50;5039213;28;20045;-63
2023/04/18 00:08:48;;;;;;;14.23;8.52;;;;;;;10.13;78.86;102497.22;5053324;28;20576;-62
2023/04/18 00:11:16;;;;;;;16.20;8.82;;;;;;;10.14;77.64;102498.03;5054235;28;20553;-65
2023/04/18 00:13:46;;;;;;;12.30;7.28;;;;;;;10.11;77.53;102504.78;5044841;28;20167;-64
2023/04/18 00:16:14;;;;;;;16.02;8.55;;;;;;;10.18;77.19;102499.28;5017400;28;20045;-62
2023/04/18 00:18:41;;;;;;;15.07;8.05;;;;;;;10.14;76.18;102492.59;5036885;28;20114;-62
2023/04/18 00:21:09;;;;;;;13.23;7.93;;;;;;;10.08;76.11;102502.50;5054070;28;20056;-62
2023/04/18 00:23:38;;;;;;;14.30;7.70;;;;;;;10.07;75.06;102500.81;5046795;28;20133;-62
2023/04/18 00:26:06;;;;;;;15.82;8.35;;;;;;;9.92;74.38;102500.34;5066091;28;20053;-63
2023/04/18 00:28:34;;;;;;;15.70;8.30;;;;;;;9.79;74.79;102495.84;5048988;28;20087;-62
2023/04/18 00:31:02;;;;;;;13.68;7.57;;;;;;;9.80;74.92;102490.16;5036568;28;20094;-61
2023/04/18 00:33:33;;;;;;;14.32;8.55;;;;;;;9.83;74.19;102502.50;5027066;28;20132;-62
2023/04/18 00:36:00;;;;;;;20.13;9.02;;;;;;;9.84;74.02;102495.16;5032659;28;20128;-64
2023/04/18 00:38:28;;;;;;;12.95;7.97;;;;;;;9.81;74.64;102488.25;5027135;28;20048;-63
2023/04/18 00:40:56;;;;;;;13.38;7.45;;;;;;;9.75;74.62;102498.16;5055447;28;20108;-66
2023/04/18 00:43:24;;;;;;;17.02;8.73;;;;;;;9.71;74.31;102490.66;5058725;28;20061;-62
2023/04/18 00:45:52;;;;;;;12.85;7.32;;;;;;;9.57;75.11;102493.50;5042967;28;20049;-63
2023/04/18 00:48:20;;;;;;;13.45;7.70;;;;;;;9.54;75.87;102493.06;5042540;28;20090;-65
2023/04/18 00:50:47;;;;;;;12.98;7.90;;;;;;;9.53;76.00;102485.97;5058101;28;20056;-62
2023/04/18 00:53:15;;;;;;;14.40;8.23;;;;;;;9.45;77.34;102494.38;5031492;28;20045;-62
2023/04/18 00:55:44;;;;;;;14.35;8.68;;;;;;;9.35;78.82;102490.25;5032540;28;20053;-63
2023/04/18 00:58:11;;;;;;;14.38;8.40;;;;;;;9.22;79.51;102495.78;5015164;28;20099;-63
2023/04/18 01:00:39;;;;;;;13.00;7.88;;;;;;;9.13;80.02;102486.22;5035453;28;20139;-64
2023/04/18 01:03:09;;;;;;;15.60;8.82;;;;;;;9.08;80.26;102488.75;5048155;28;20176;-61
2023/04/18 01:05:37;;;;;;;16.63;9.60;;;;;;;9.14;80.33;102494.16;5033756;28;20183;-63
2023/04/18 01:08:05;;;;;;;12.57;8.32;;;;;;;9.19;79.76;102498.94;5032972;28;20047;-64
2023/04/18 01:10:36;;;;;;;11.73;7.45;;;;;;;9.18;79.32;102494.53;5033831;28;20068;-64
2023/04/18 01:13:13;;;;;;;13.25;9.02;;;;;;;9.06;79.74;102491.69;5035415;28;20065;-63
2023/04/18 01:15:49;;;;;;;13.65;8.98;;;;;;;8.99;79.67;102490.03;5038300;28;20049;-62
2023/04/18 01:18:17;;;;;;;12.30;8.00;;;;;;;9.02;79.80;102484.16;5034310;28;20092;-65
2023/04/18 01:20:50;;;;;;;12.95;7.43;;;;;;;9.02;79.35;102492.31;5052269;28;20056;-64
2023/04/18 01:23:20;;;;;;;12.50;8.05;;;;;;;9.03;79.13;102486.69;5054612;28;20076;-63
2023/04/18 01:25:50;;;;;;;13.32;8.63;;;;;;;9.07;78.26;102481.66;5019938;28;20053;-62
2023/04/18 01:28:22;;;;;;;15.35;8.55;;;;;;;8.96;78.04;102481.25;5033277;28;20421;-62
2023/04/18 01:30:50;;;;;;;14.40;8.75;;;;;;;8.85;79.00;102484.69;4990139;28;20045;-64
2023/04/18 01:33:18;;;;;;;17.52;8.65;;;;;;;8.78;79.67;102485.72;5038912;28;20041;-61
2023/04/18 01:35:46;;;;;;;17.15;9.27;;;;;;;8.73;79.43;102480.94;5037018;28;20049;-61
2023/04/18 01:38:14;;;;;;;12.02;8.25;;;;;;;8.74;79.56;102477.19;5050439;28;20076;-61
2023/04/18 01:40:42;;;;;;;16.52;8.60;;;;;;;8.82;78.96;102473.41;5053014;28;20041;-62
2023/04/18 01:43:10;;;;;;;13.23;8.15;;;;;;;8.85;78.95;102470.25;5042766;28;20052;-62
2023/04/18 01:45:37;;;;;;;10.63;6.75;;;;;;;8.79;78.26;102471.13;4999127;28;20049;-64
2023/04/18 01:48:05;;;;;;;14.23;8.77;;;;;;;8.71;78.27;102470.31;5043969;28;20073;-62
2023/04/18 01:50:33;;;;;;;12.38;8.05;;;;;;;8.59;78.22;102473.91;5040465;28;20052;-62
2023/04/18 01:53:01;;;;;;;15.48;9.18;;;;;;;8.59;78.62;102473.91;5032934;28;20466;-64
2023/04/18 01:55:28;;;;;;;15.73;9.10;;;;;;;8.59;78.33;102473.91;5033399;28;20103;-64
2023/04/18 01:57:56;;;;;;;13.15;8.23;;;;;;;8.57;78.68;102473.28;5041483;28;20123;-64
2023/04/18 02:00:24;;;;;;;18.35;8.82;;;;;;;8.53;78.55;102470.97;5051735;28;20056;-62
2023/04/18 02:02:51;;;;;;;17.17;8.80;;;;;;;8.43;78.44;102464.34;5038595;28;20041;-64
2023/04/18 02:05:21;;;;;;;11.18;7.30;;;;;;;8.33;79.02;102467.47;5017703;28;20111;-62
2023/04/18 02:07:49;;;;;;;11.48;7.68;;;;;;;8.27;79.19;102465.59;5051322;28;20072;-62
2023/04/18 02:10:17;;;;;;;12.43;8.52;;;;;;;8.22;78.73;102462.69;5056644;28;20041;-62
2023/04/18 02:12:45;;;;;;;14.88;7.95;;;;;;;8.10;78.39;102466.06;5041895;28;20212;-63
2023/04/18 02:15:13;;;;;;;15.55;8.68;;;;;;;8.12;78.36;102463.09;5035344;28;20073;-62
2023/04/18 02:17:41;;;;;;;14.95;7.95;;;;;;;8.22;78.42;102468.94;5044922;28;20053;-63
2023/04/18 02:20:09;;;;;;;13.38;8.43;;;;;;;8.22;77.25;102468.09;5055341;28;20108;-63
2023/04/18 02:22:38;;;;;;;14.65;9.05;;;;;;;8.15;77.81;102461.84;5028657;28;20267;-62
2023/04/18 02:25:06;;;;;;;16.88;8.95;;;;;;;8.08;78.10;102461.84;5036352;28;20461;-63
2023/04/18 02:27:34;;;;;;;11.27;7.68;;;;;;;7.97;77.87;102462.50;5039119;28;20041;-61
2023/04/18 02:30:02;;;;;;;13.30;8.57;;;;;;;7.93;78.36;102464.78;5054774;28;20045;-64
2023/04/18 02:32:33;;;;;;;15.48;8.30;;;;;;;7.95;77.60;102470.03;5037780;28;20049;-62
2023/04/18 02:35:02;;;;;;;15.25;7.95;;;;;;;8.04;77.85;102471.50;5016065;28;20042;-62
2023/04/18 02:37:29;;;;;;;12.85;7.35;;;;;;;8.01;77.05;102463.75;5017408;28;20124;-63
2023/04/18 02:39:57;;;;;;;11.20;7.88;;;;;;;7.94;77.09;102458.34;5038575;28;20121;-62
2023/04/18 02:42:29;;;;;;;14.23;7.90;;;;;;;7.92;77.48;102455.00;5043237;28;20056;-63
2023/04/18 02:44:57;;;;;;;14.88;9.35;;;;;;;7.88;77.00;102467.31;5035028;28;20057;-63
2023/04/18 02:47:26;;;;;;;12.10;7.43;;;;;;;7.74;78.21;102461.03;5035170;28;20405;-62
2023/04/18 02:49:54;;;;;;;12.77;8.13;;;;;;;7.65;78.18;102468.56;5016655;28;20049;-62
2023/04/18 02:52:26;;;;;;;13.52;8.43;;;;;;;7.63;78.49;102465.22;5040325;28;20057;-64
2023/04/18 02:54:54;;;;;;;15.45;8.43;;;;;;;7.59;78.55;102463.97;5035933;28;20054;-62
2023/04/18 02:57:25;;;;;;;12.07;7.32;;;;;;;7.57;78.55;102467.94;5002404;28;20053;-64
2023/04/18 02:59:59;;;;;;;12.60;8.40;;;;;;;7.52;77.84;102460.41;5028685;28;20053;-63
2023/04/18 03:02:57;;;;;;;13.55;7.85;;;;;;;7.49;79.11;102458.13;5009478;28;20061;-62
2023/04/18 03:05:39;;;;;;;15.15;8.57;;;;;;;7.56;79.06;102458.97;5034523;28;20056;-64
2023/04/18 03:08:07;;;;;;;13.98;8.27;;;;;;;7.59;77.87;102457.72;5051303;28;20136;-63
2023/04/18 03:10:37;;;;;;;13.57;7.53;;;;;;;7.51;78.52;102456.03;5045455;28;20049;-63
2023/04/18 03:13:05;;;;;;;12.95;7.72;;;;;;;7.49;78.69;102452.69;5054066;28;20048;-63
2023/04/18 03:15:33;;;;;;;10.93;6.18;;;;;;;7.50;79.31;102448.09;5036755;28;20489;-62
2023/04/18 03:18:01;;;;;;;15.98;8.20;;;;;;;7.41;78.55;102452.91;5016906;28;20045;-63
2023/04/18 03:20:33;;;;;;;11.52;7.57;;;;;;;7.32;78.89;102446.00;5040690;28;20033;-64
2023/04/18 03:23:01;;;;;;;15.77;8.20;;;;;;;7.34;79.34;102454.78;5053578;28;20435;-62
2023/04/18 03:25:30;;;;;;;9.35;6.35;;;;;;;7.25;80.46;102460.38;5034796;28;20377;-61
2023/04/18 03:27:58;;;;;;;12.93;7.70;;;;;;;7.20;80.20;102457.44;5017563;28;20044;-63
2023/04/18 03:30:27;;;;;;;10.43;7.03;;;;;;;7.09;80.02;102458.03;5018689;28;20461;-63
2023/04/18 03:32:58;;;;;;;13.52;8.00;;;;;;;7.19;79.97;102463.91;5037767;28;20059;-61
2023/04/18 03:35:26;;;;;;;11.30;7.70;;;;;;;7.17;79.52;102466.00;5054652;28;20091;-63
2023/04/18 03:37:54;;;;;;;15.02;7.60;;;;;;;7.20;79.76;102460.16;5053525;28;20056;-62
2023/04/18 03:40:25;;;;;;;13.20;8.55;;;;;;;7.16;79.67;102463.47;5022409;28;20042;-65
2023/04/18 03:42:58;;;;;;;13.45;8.32;;;;;;;7.04;80.45;102465.94;5050325;28;20049;-62
2023/04/18 03:45:26;;;;;;;11.52;6.85;;;;;;;7.09;80.26;102460.75;5035273;28;20124;-63
2023/04/18 03:47:55;;;;;;;18.75;8.75;;;;;;;7.10;79.69;102470.56;5033334;28;20042;-64
2023/04/18 03:50:24;;;;;;;15.57;8.25;;;;;;;7.23;79.75;102465.16;5017451;28;20052;-63
2023/04/18 03:52:54;;;;;;;12.70;8.05;;;;;;;7.33;78.83;102459.34;5045030;28;20044;-62
2023/04/18 03:55:22;;;;;;;14.32;8.07;;;;;;;7.23;78.91;102475.16;5056747;28;20103;-62
2023/04/18 03:57:50;;;;;;;13.55;7.75;;;;;;;7.10;79.58;102458.88;5055547;28;20052;-62
2023/04/18 04:00:25;;;;;;;12.27;7.15;;;;;;;6.98;80.95;102467.59;5047678;28;20053;-64
2023/04/18 04:03:05;;;;;;;12.27;8.13;;;;;;;6.89;80.54;102468.81;5082858;28;20064;-65
2023/04/18 04:05:33;;;;;;;11.27;7.05;;;;;;;6.93;81.59;102469.25;5058918;28;20095;-65
2023/04/18 04:08:01;;;;;;;15.73;8.40;;;;;;;6.90;81.13;102464.22;5027059;28;20052;-64
2023/04/18 04:10:29;;;;;;;12.07;6.90;;;;;;;6.85;81.30;102461.28;5056902;28;20066;-66
2023/04/18 04:12:57;;;;;;;13.15;8.18;;;;;;;6.91;80.64;102460.50;5050935;28;20037;-62
2023/04/18 04:15:26;;;;;;;12.98;7.78;;;;;;;6.83;81.21;102462.34;5037231;28;20061;-61
2023/04/18 04:18:02;;;;;;;11.63;7.82;;;;;;;6.89;81.01;102473.41;5033858;28;20045;-64
2023/04/18 04:20:31;;;;;;;13.38;8.15;;;;;;;6.68;81.99;102461.63;5017036;28;20414;-63
2023/04/18 04:23:07;;;;;;;14.30;8.40;;;;;;;6.67;81.62;102465.41;5015372;28;20053;-62
2023/04/18 04:25:37;;;;;;;13.68;8.10;;;;;;;6.63;82.47;102468.69;5042558;28;20059;-63
2023/04/18 04:28:13;;;;;;;12.48;8.50;;;;;;;6.61;82.23;102466.19;5002246;28;20081;-62
2023/04/18 04:30:51;;;;;;;13.10;8.18;;;;;;;6.58;82.90;102464.72;5032385;28;20045;-63
2023/04/18 04:33:23;;;;;;;11.85;7.35;;;;;;;6.57;81.51;102471.19;5015442;28;20041;-64
2023/04/18 04:35:54;;;;;;;15.18;8.00;;;;;;;6.49;82.56;102462.38;5068071;28;20095;-62
2023/04/18 04:38:22;;;;;;;15.93;8.55;;;;;;;6.39;82.84;102466.28;5052104;28;20405;-62
2023/04/18 04:40:52;;;;;;;12.30;8.57;;;;;;;6.54;82.58;102465.31;5025161;28;20045;-63
2023/04/18 04:43:21;;;;;;;13.23;8.60;;;;;;;6.64;82.35;102470.38;5052343;28;20082;-63
2023/04/18 04:45:51;;;;;;;13.45;8.30;;;;;;;6.58;81.72;102472.00;5046286;28;20074;-64
2023/04/18 04:48:23;;;;;;;15.10;8.55;;;;;;;6.48;82.39;102474.25;5055371;28;20052;-63
2023/04/18 04:50:54;;;;;;;16.80;8.73;;;;;;;6.29;83.87;102470.41;5052998;28;20045;-62
2023/04/18 04:53:26;;;;;;;12.70;8.40;;;;;;;6.30;83.83;102481.03;5018429;28;20046;-62
2023/04/18 04:55:55;;;;;;;13.48;8.73;;;;;;;6.34;83.28;102486.88;5041280;28;20053;-61
2023/04/18 04:58:23;;;;;;;14.13;9.02;;;;;;;6.27;83.93;102475.16;5035463;28;20107;-62
2023/04/18 05:00:56;;;;;;;14.85;8.80;;;;;;;6.22;84.66;102483.06;5051171;28;20048;-63
2023/04/18 05:03:24;;;;;;;15.10;8.93;;;;;;;6.13;85.18;102480.50;5021552;28;20047;-62
2023/04/18 05:05:53;;;;;;;15.30;9.90;;;;;;;6.24;85.47;102481.81;5039639;28;20056;-61
2023/04/18 05:08:20;;;;;;;13.40;8.30;;;;;;;6.18;85.06;102483.47;5053588;28;20094;-63
2023/04/18 05:10:48;;;;;;;13.57;8.20;;;;;;;6.21;85.85;102489.50;5053612;28;20044;-61
2023/04/18 05:13:16;;;;;;;16.60;8.70;;;;;;;6.39;85.00;102479.81;5052318;28;20408;-63
2023/04/18 05:15:44;;;;;;;12.85;8.57;;;;;;;6.43;84.69;102485.69;5034147;28;20045;-63
2023/04/18 05:18:15;;;;;;;13.13;7.50;;;;;;;6.34;85.31;102487.72;5041786;28;20052;-64
2023/04/18 05:20:42;;;;;;;11.70;8.02;;;;;;;6.40;85.05;102481.50;5042683;28;20104;-64
2023/04/18 05:23:10;;;;;;;13.13;7.97;;;;;;;6.44;85.55;102487.34;5038503;28;20390;-63
2023/04/18 05:25:38;;;;;;;16.88;9.35;;;;;;;6.47;85.25;102477.97;5065571;28;20057;-64
2023/04/18 05:28:07;;;;;;;12.93;7.90;;;;;;;6.43;85.48;102484.84;5051703;28;20508;-64
2023/04/18 05:30:35;;;;;;;11.90;8.05;;;;;;;6.42;85.76;102489.41;5063633;28;20072;-64
2023/04/18 05:33:03;;;;;;;15.02;8.98;;;;;;;6.46;85.78;102488.00;5055671;28;20449;-63
2023/04/18 05:35:33;;;;;;;14.25;8.65;;;;;;;6.38;87.33;102493.56;5036839;28;20033;-62
2023/04/18 05:38:00;;;;;;;11.93;7.93;;;;;;;6.40;87.38;102497.75;5035093;28;20088;-62
2023/04/18 05:40:29;;;;;;;12.35;8.10;;;;;;;6.54;87.06;102503.22;5033409;28;20041;-61
2023/04/18 05:42:56;;;;;;;14.80;8.77;;;;;;;6.54;86.87;102495.09;5036817;28;20046;-64
2023/04/18 05:45:24;;;;;;;14.25;9.15;;;;;;;6.48;88.12;102498.63;5037267;28;20511;-61
2023/04/18 05:47:52;;;;;;;18.42;9.57;;;;;;;6.48;88.15;102504.03;5039784;28;20040;-62
2023/04/18 05:50:20;;;;;;;15.52;9.30;;;;;;;6.49;88.72;102501.13;5056862;28;20041;-62
2023/04/18 05:52:48;;;;;;;17.50;9.48;;;;;;;6.57;88.98;102508.28;5045988;28;20045;-59
2023/04/18 05:55:16;;;;;;;15.73;9.13;;;;;;;6.67;88.35;102510.63;5036947;28;20474;-62
2023/04/18 05:57:43;;;;;;;12.93;9.00;;;;;;;6.74;88.44;102514.19;5034772;28;20045;-63
2023/04/18 06:00:12;;;;;;;13.82;8.32;;;;;;;6.80;88.32;102508.78;5038305;28;20057;-62
2023/04/18 06:02:44;;;;;;;13.50;8.35;;;;;;;6.90;88.60;102518.41;4544389;28;10000817;-64
2023/04/18 06:05:12;;;;;;;13.07;8.38;;;;;;;6.98;87.57;102526.38;5031458;28;20302;-62
2023/04/18 06:07:40;;;;;;;12.60;8.30;;;;;;;7.04;87.38;102514.72;5032693;28;20116;-64
2023/04/18 06:10:12;;;;;;;13.60;8.10;;;;;;;7.15;87.16;102530.41;5044949;28;20049;-64
2023/04/18 06:12:40;;;;;;;12.43;8.18;;;;;;;7.19;87.59;102526.28;5041081;28;20819;-63
2023/04/18 06:15:09;;;;;;;13.88;8.75;;;;;;;7.20;87.56;102525.22;5032412;28;20057;-62
2023/04/18 06:17:37;;;;;;;18.00;8.63;;;;;;;7.17;88.66;102520.22;5031136;28;20559;-63
2023/04/18 06:20:05;;;;;;;15.43;9.05;;;;;;;7.15;88.68;102529.59;5058942;28;20608;-64
2023/04/18 06:22:33;;;;;;;12.45;7.95;;;;;;;7.07;89.53;102522.47;5035500;28;20112;-64
2023/04/18 06:25:00;;;;;;;14.38;8.52;;;;;;;7.16;89.34;102523.94;5031153;28;20104;-64
2023/04/18 06:27:28;;;;;;;12.32;7.95;;;;;;;7.20;90.25;102525.22;5031176;28;20053;-63
2023/04/18 06:29:58;;;;;;;12.50;8.25;;;;;;;7.29;90.20;102525.03;5035894;28;20041;-63
2023/04/18 06:32:26;;;;;;;12.05;8.00;;;;;;;7.38;88.65;102526.50;5038768;28;20499;-65
2023/04/18 06:34:54;;;;;;;12.65;8.18;;;;;;;7.37;88.82;102522.97;5032577;28;20497;-65
2023/04/18 06:37:22;;;;;;;14.00;8.27;;;;;;;7.37;89.81;102531.09;5035382;28;20079;-64
2023/04/18 06:39:50;;;;;;;13.75;8.40;;;;;;;7.34;89.69;102519.84;5036986;28;20486;-65
2023/04/18 06:42:17;;;;;;;11.80;7.80;;;;;;;7.35;90.19;102537.78;5044023;28;20108;-61
2023/04/18 06:44:49;;;;;;;15.13;8.65;;;;;;;7.37;90.54;102538.41;5031442;28;20061;-65
2023/04/18 06:47:16;;;;;;;17.30;8.15;;;;;;;7.40;90.26;102538.00;5031341;28;20136;-64
2023/04/18 06:49:44;;;;;;;16.88;8.77;;;;;;;7.42;89.91;102544.88;5032536;28;20053;-62
2023/04/18 06:52:12;;;;;;;12.35;8.27;;;;;;;7.34;90.91;102536.94;5033671;28;20053;-61
2023/04/18 06:54:39;;;;;;;15.95;8.60;;;;;;;7.33;91.07;102539.84;5034052;28;20095;-62
2023/04/18 06:57:07;;;;;;;12.52;8.20;;;;;;;7.37;91.26;102541.13;5034349;28;20053;-62
2023/04/18 06:59:36;;;;;;;13.00;8.30;;;;;;;7.41;91.75;102542.41;5047930;28;20061;-63
2023/04/18 07:02:04;;;;;;;11.60;7.57;;;;;;;7.37;91.20;102541.94;5047764;28;20489;-65
2023/04/18 07:04:31;;;;;;;12.65;8.27;;;;;;;7.32;92.66;102551.75;5047021;28;20050;-63
2023/04/18 07:07:03;;;;;;;15.43;8.13;;;;;;;7.35;92.10;102554.03;5012225;28;20050;-63
2023/04/18 07:09:31;;;;;;;16.88;7.55;;;;;;;7.39;92.38;102550.72;5012412;28;20054;-63
2023/04/18 07:11:59;;;;;;;13.45;8.00;;;;;;;7.46;92.07;102548.03;5036504;28;20050;-62
2023/04/18 07:14:27;;;;;;;18.67;8.20;;;;;;;7.42;92.16;102544.06;5033427;28;20134;-63
2023/04/18 07:16:56;;;;;;;14.07;7.88;;;;;;;7.44;93.00;102552.81;5032715;28;20076;-63
2023/04/18 07:19:24;;;;;;;14.93;7.75;;;;;;;7.50;92.39;102552.00;5014563;28;20100;-62
2023/04/18 07:21:52;;;;;;;15.30;8.63;;;;;;;7.49;93.12;102550.34;5032502;28;20052;-64
2023/04/18 07:24:22;;;;;;;13.40;8.20;;;;;;;7.54;92.68;102553.25;5050029;28;20051;-62
2023/04/18 07:26:50;;;;;;;13.32;8.25;;;;;;;7.52;93.00;102555.34;5033920;28;20390;-63
2023/04/18 07:29:21;;;;;;;12.15;8.13;;;;;;;7.55;93.49;102554.94;5050102;28;20052;-62
2023/04/18 07:31:49;;;;;;;15.05;9.00;;;;;;;7.56;93.21;102562.03;5037742;28;20049;-63
2023/04/18 07:34:17;;;;;;;14.43;8.82;;;;;;;7.61;93.36;102559.53;5049435;28;20170;-63
2023/04/18 07:36:45;;;;;;;12.10;8.18;;;;;;;7.67;93.34;102564.16;5037642;28;20057;-66
2023/04/18 07:39:12;;;;;;;12.35;8.23;;;;;;;7.65;93.38;102552.66;5034214;28;20045;-62
2023/04/18 07:41:40;;;;;;;15.75;8.45;;;;;;;7.63;94.48;102562.06;5034327;28;20124;-63
2023/04/18 07:44:08;;;;;;;12.27;8.30;;;;;;;7.65;94.76;102558.09;5035217;28;20053;-62
2023/04/18 07:46:35;;;;;;;13.75;7.95;;;;;;;7.78;94.72;102554.56;5033770;28;20443;-63
2023/04/18 07:49:03;;;;;;;11.50;7.93;;;;;;;7.84;93.58;102558.31;5033709;28;20532;-62
2023/04/18 07:51:31;;;;;;;10.43;7.30;;;;;;;7.89;94.35;102556.66;5034671;28;20511;-64
2023/04/18 07:53:59;;;;;;;12.02;7.40;;;;;;;7.98;93.89;102560.00;5034251;28;20046;-64
2023/04/18 07:56:27;;;;;;;12.07;7.50;;;;;;;8.00;93.74;102563.34;5035038;28;20528;-63
2023/04/18 07:58:55;;;;;;;12.88;7.65;;;;;;;8.04;94.33;102561.91;5032979;28;20140;-63
2023/04/18 08:01:25;;;;;;;11.38;8.05;;;;;;;8.07;94.47;102563.34;5016839;28;20037;-62
2023/04/18 08:03:55;;;;;;;12.13;6.88;;;;;;;8.11;93.63;102562.72;5034321;28;20056;-63
2023/04/18 08:06:23;;;;;;;12.88;7.55;;;;;;;8.13;91.96;102570.69;5034799;28;20045;-62
2023/04/18 08:08:51;;;;;;;11.07;6.90;;;;;;;8.14;92.49;102571.50;5032792;28;20045;-62
2023/04/18 08:11:19;;;;;;;12.38;6.70;;;;;;;8.19;92.39;102571.72;5034595;28;20045;-63
2023/04/18 08:13:46;;;;;;;12.10;6.93;;;;;;;8.19;91.63;102583.41;5033200;28;20057;-62
2023/04/18 08:16:14;;;;;;;10.50;6.47;;;;;;;8.21;91.49;102575.06;5066696;28;20084;-62
2023/04/18 08:18:44;;;;;;;12.05;7.00;;;;;;;8.22;91.91;102568.56;5034331;28;20115;-62
2023/04/18 08:21:12;;;;;;;11.05;6.95;;;;;;;8.26;91.99;102577.97;5034029;28;20047;-62
2023/04/18 08:23:39;;;;;;;11.15;6.43;;;;;;;8.24;93.03;102574.63;5033887;28;20128;-61
2023/04/18 08:26:07;;;;;;;10.82;6.55;;;;;;;8.32;92.29;102572.56;4686224;28;10000499;-67
2023/04/18 08:28:35;;;;;;;11.25;6.40;;;;;;;8.39;91.88;102579.84;5029459;28;20401;-62
2023/04/18 08:31:02;;;;;;;14.13;6.95;;;;;;;8.51;92.40;102576.34;5013255;28;20118;-63
2023/04/18 08:33:30;;;;;;;10.55;6.90;;;;;;;8.64;91.04;102577.34;5030629;28;20095;-64
2023/04/18 08:35:58;;;;;;;10.98;7.00;;;;;;;8.70;90.45;102585.47;5029789;28;20057;-64
2023/04/18 08:38:25;;;;;;;12.25;6.65;;;;;;;8.74;90.17;102572.31;5062244;28;20049;-64
2023/04/18 08:40:54;;;;;;;12.77;7.35;;;;;;;8.77;89.36;102580.03;5030792;28;20592;-63
2023/04/18 08:43:23;;;;;;;9.85;6.80;;;;;;;8.83;89.11;102570.22;5029456;28;20058;-65
2023/04/18 08:45:57;;;;;;;11.07;6.57;;;;;;;8.90;87.98;102579.19;5013351;28;20049;-65
2023/04/18 08:48:27;;;;;;;12.18;6.80;;;;;;;8.96;88.64;102570.97;5029511;28;20068;-64
2023/04/18 08:50:58;;;;;;;11.05;7.20;;;;;;;8.94;87.78;102574.97;5045607;28;20065;-64
2023/04/18 08:53:26;;;;;;;9.88;6.88;;;;;;;8.92;87.47;102577.06;5032212;28;20473;-63
2023/04/18 08:55:59;;;;;;;11.90;7.00;;;;;;;8.90;87.38;102574.56;5033516;28;20814;-62
2023/04/18 08:58:32;;;;;;;11.23;6.88;;;;;;;8.94;87.92;102567.63;5034858;28;20084;-65
2023/04/18 09:01:00;;;;;;;10.23;7.10;;;;;;;9.02;88.85;102569.31;5041460;28;20041;-62
2023/04/18 09:03:38;;;;;;;12.38;7.18;;;;;;;9.15;86.86;102571.13;5029753;28;20115;-63
2023/04/18 09:06:13;;;;;;;11.60;8.02;;;;;;;9.17;85.51;102558.16;5039970;28;20083;-62
2023/04/18 09:08:44;;;;;;;10.23;7.43;;;;;;;9.17;85.00;102547.28;5050894;28;20033;-64
2023/04/18 09:11:22;;;;;;;11.82;7.28;;;;;;;9.18;83.74;102565.25;5028835;28;20052;-65
2023/04/18 09:13:50;;;;;;;9.82;6.88;;;;;;;9.23;83.44;102562.72;5046093;28;20488;-62
2023/04/18 09:16:21;;;;;;;13.50;6.97;;;;;;;9.32;84.11;102561.44;5036260;28;20052;-64
2023/04/18 09:19:12;;;;;;;9.90;6.65;;;;;;;9.33;83.81;102563.13;5051789;28;20481;-61
2023/04/18 09:21:43;;;;;;;11.90;6.22;;;;;;;9.35;83.31;102560.16;5036360;28;20060;-62
2023/04/18 09:24:22;;;;;;;11.38;6.65;;;;;;;9.35;83.70;102560.16;5042856;28;20079;-62
2023/04/18 09:26:52;;;;;;;9.63;5.47;;;;;;;9.38;82.94;102560.56;5040841;28;20122;-63
2023/04/18 09:29:21;;;;;;;10.43;5.20;;;;;;;9.39;83.04;102564.13;5047323;28;20129;-62
2023/04/18 09:31:59;;;;;;;9.38;6.10;;;;;;;9.37;82.39;102567.03;5039658;28;20057;-62
2023/04/18 09:34:28;;;;;;;7.50;4.90;;;;;;;9.36;81.93;102562.66;5039459;28;20068;-62
2023/04/18 09:37:10;;;;;;;9.02;5.28;;;;;;;9.37;82.54;102556.16;5026453;28;20136;-64
2023/04/18 09:39:39;;;;;;;9.38;5.18;;;;;;;9.49;83.27;102560.94;5033838;28;20133;-62
2023/04/18 09:42:09;;;;;;;9.27;5.70;;;;;;;9.55;83.63;102563.63;5033256;28;20437;-63
2023/04/18 09:44:38;;;;;;;10.52;6.25;;;;;;;9.62;82.48;102566.31;5032352;28;20050;-63
2023/04/18 09:47:06;;;;;;;8.82;6.35;;;;;;;9.60;81.87;102568.41;5032981;28;20076;-62
2023/04/18 09:49:34;;;;;;;8.18;5.50;;;;;;;9.54;81.88;102561.09;5033110;28;20042;-62
2023/04/18 09:52:06;;;;;;;10.48;6.07;;;;;;;9.52;82.13;102563.22;5039548;28;20109;-58
2023/04/18 09:54:36;;;;;;;9.52;6.05;;;;;;;9.50;82.76;102563.44;5039723;28;20041;-62
2023/04/18 09:57:05;;;;;;;9.18;5.72;;;;;;;9.52;82.65;102568.66;5039346;28;20123;-62
2023/04/18 09:59:40;;;;;;;8.27;5.32;;;;;;;9.56;81.62;102567.16;5018248;28;20057;-62
2023/04/18 10:02:15;;;;;;;9.02;5.60;;;;;;;9.62;82.07;102566.31;5032974;28;20215;-61
2023/04/18 10:04:43;;;;;;;8.30;5.47;;;;;;;9.59;82.36;102566.72;5033206;28;20128;-63
2023/04/18 10:07:13;;;;;;;8.20;4.60;;;;;;;9.62;81.91;102566.31;5036919;28;20056;-61
2023/04/18 10:09:43;;;;;;;10.43;4.63;;;;;;;9.64;81.41;102574.25;5039542;28;20100;-62
2023/04/18 10:12:12;;;;;;;9.27;5.53;;;;;;;9.63;81.59;102567.97;5066181;28;20092;-64
2023/04/18 10:14:42;;;;;;;8.43;5.60;;;;;;;9.66;81.00;102572.97;5041647;28;20049;-63
2023/04/18 10:17:10;;;;;;;8.50;5.40;;;;;;;9.67;81.73;102563.75;5020732;28;20141;-61
2023/04/18 10:19:40;;;;;;;9.13;5.32;;;;;;;9.67;82.03;102558.31;5017229;28;20056;-62
2023/04/18 10:22:08;;;;;;;8.50;5.60;;;;;;;9.69;82.41;102571.69;5032899;28;20068;-64
2023/04/18 10:24:54;;;;;;;8.50;5.10;;;;;;;9.71;81.22;102564.97;5031246;28;20103;-63
2023/04/18 10:27:41;;;;;;;;;;;;;;;9.73;80.92;102562.03;5034102;28;20049;-62
2023/04/18 10:30:09;;;;;;;9.20;5.10;;;;;;;9.75;81.19;102566.22;5036165;28;19952;-63
2023/04/18 10:32:39;;;;;;;9.82;5.80;;;;;;;9.85;81.48;102562.16;5036530;28;20049;-62
2023/04/18 10:35:07;;;;;;;9.80;5.78;;;;;;;9.86;82.28;102563.81;5019144;28;20107;-61
2023/04/18 10:37:34;;;;;;;9.38;4.88;;;;;;;9.86;81.57;102566.53;5034926;28;20122;-60
2023/04/18 10:40:05;;;;;;;9.63;5.88;;;;;;;9.77;81.55;102564.09;5035136;28;20054;-62
2023/04/18 10:42:53;;;;;;;8.40;5.80;;;;;;;9.73;81.78;102556.59;5036398;28;20045;-62
2023/04/18 10:45:25;;;;;;;8.85;5.50;;;;;;;9.75;81.48;102565.38;5032239;28;20461;-63
2023/04/18 10:48:23;;;;;;;7.95;5.10;;;;;;;9.78;81.44;102562.22;5018979;28;20115;-63
2023/04/18 10:51:22;;;;;;;9.85;5.40;;;;;;;9.80;81.46;102560.94;5033999;28;20053;-61
2023/04/18 10:53:53;;;;;;;7.75;5.25;;;;;;;9.77;81.11;102553.22;5035863;28;20562;-62
2023/04/18 10:56:21;;;;;;;9.23;5.57;;;;;;;9.73;81.00;102554.69;5035736;28;20048;-63
2023/04/18 10:58:52;;;;;;;8.32;5.40;;;;;;;9.73;81.33;102551.16;5035069;28;20049;-61
2023/04/18 11:01:29;;;;;;;13.00;6.25;;;;;;;9.74;81.90;102550.94;5034515;28;20060;-63
2023/04/18 11:04:00;;;;;;;12.93;5.78;;;;;;;9.72;82.99;102555.78;5035637;28;20115;-61
2023/04/18 11:06:30;;;;;;;9.88;6.10;;;;;;;9.71;82.34;102559.53;5035389;28;20069;-62
2023/04/18 11:09:24;;;;;;;9.00;6.13;;;;;;;9.74;82.75;102564.56;5033757;28;20049;-62
2023/04/18 11:12:06;;;;;;;9.98;6.40;;;;;;;9.76;82.62;102556.16;5032553;28;20065;-63
2023/04/18 11:14:46;;;;;;;8.60;6.00;;;;;;;9.79;82.88;102556.56;5035438;28;20054;-63
2023/04/18 11:17:22;;;;;;;13.10;6.40;;;;;;;9.83;83.43;102559.66;5034105;28;20540;-61
2023/04/18 11:19:58;;;;;;;13.25;6.85;;;;;;;9.82;83.37;102561.56;5033935;28;20049;-62
2023/04/18 11:22:26;;;;;;;12.30;6.13;;;;;;;9.88;83.64;102553.56;5034100;28;20073;-63
2023/04/18 11:25:07;;;;;;;8.88;6.05;;;;;;;9.88;83.88;102546.22;5034335;28;20073;-62
2023/04/18 11:27:35;;;;;;;12.02;6.53;;;;;;;9.88;84.42;102553.56;5035061;28;20104;-63
2023/04/18 11:30:03;;;;;;;9.23;6.28;;;;;;;9.87;84.10;102558.16;5034779;28;20064;-64
2023/04/18 11:32:34;;;;;;;11.77;7.13;;;;;;;9.85;84.17;102543.13;5034494;28;20041;-63
2023/04/18 11:35:02;;;;;;;11.70;6.25;;;;;;;9.90;85.49;102543.28;5033687;28;20428;-62
2023/04/18 11:37:31;;;;;;;11.75;6.50;;;;;;;9.93;85.41;102549.13;5034041;28;20565;-62
2023/04/18 11:39:59;;;;;;;10.32;7.00;;;;;;;9.90;84.82;102551.44;5034440;28;20501;-63